Time;durP1;ratioP1;P1;durP2;ratioP2;P2;SDS_P1;SDS_P2;PMS_P1;PMS_P2;Temp;Humidity;BMP_temperature;BMP_pressure;BME280_temperature;BME280_humidity;BME280_pressure;Samples;Min_cycle;Max_cycle;Signal;HPM_P1;HPM_P2
2021/11/28 00:01:03;;;;;;;76.33;41.77;;;;;;;2.34;82.95;93014.13;1678890;84;21056;-57
2021/11/28 00:03:31;;;;;;;66.40;36.35;;;;;;;2.30;82.93;93010.16;1684196;84;21151;-58
2021/11/28 00:06:03;;;;;;;61.40;36.03;;;;;;;2.28;82.85;93007.72;1683116;83;21072;-58
2021/11/28 00:13:53;;;;;;;98.65;54.58;;;;;;;2.12;82.70;93003.80;1680437;84;20561;-56
2021/11/28 00:16:19;;;;;;;90.40;50.70;;;;;;;2.06;82.85;93006.88;1686817;83;21175;-57
2021/11/28 00:18:47;;;;;;;79.90;44.58;;;;;;;2.07;82.91;92991.55;1702611;83;20933;-57
2021/11/28 00:21:14;;;;;;;105.00;56.60;;;;;;;2.02;82.93;92998.10;1692929;83;21604;-57
2021/11/28 00:23:41;;;;;;;95.22;49.53;;;;;;;1.99;82.92;93000.33;1703292;83;21055;-56
2021/11/28 00:26:08;;;;;;;83.20;43.63;;;;;;;1.91;83.10;92986.82;1707202;83;21446;-57
2021/11/28 00:28:36;;;;;;;90.40;55.63;;;;;;;1.91;83.50;92998.44;1705681;83;21967;-57
2021/11/28 00:31:03;;;;;;;81.97;48.42;;;;;;;1.86;83.45;93003.05;1686566;83;21105;-57
2021/11/28 00:33:31;;;;;;;83.15;46.35;;;;;;;1.82;83.64;93008.41;1678301;84;21882;-56
2021/11/28 00:35:59;;;;;;;105.22;55.43;;;;;;;1.74;83.60;92997.64;1704800;83;21038;-56
2021/11/28 00:38:26;;;;;;;96.50;51.80;;;;;;;1.68;83.55;93008.84;1705078;83;21015;-58
2021/11/28 00:40:55;;;;;;;76.20;43.20;;;;;;;1.65;83.75;93013.02;1700054;83;21447;-56
2021/11/28 00:43:23;;;;;;;73.75;44.00;;;;;;;1.64;83.94;93000.06;1689310;83;21081;-56
2021/11/28 00:45:50;;;;;;;73.12;40.67;;;;;;;1.61;83.94;93007.70;1679207;83;21082;-57
2021/11/28 00:48:19;;;;;;;103.60;53.95;;;;;;;1.59;84.13;93000.61;1683943;83;21046;-56
2021/11/28 00:50:48;;;;;;;102.67;52.73;;;;;;;1.61;84.19;93007.70;1701848;83;20971;-56
2021/11/28 00:53:19;;;;;;;92.92;49.60;;;;;;;1.61;84.26;92995.51;1689835;83;22386;-57
2021/11/28 00:55:47;;;;;;;89.87;51.55;;;;;;;1.59;84.41;92995.77;1684438;83;21527;-57
2021/11/28 00:58:15;;;;;;;95.42;50.50;;;;;;;1.59;84.50;92995.77;1684585;84;21019;-56
2021/11/28 01:00:43;;;;;;;96.28;52.50;;;;;;;1.56;84.49;92989.28;1684864;84;21005;-56
2021/11/28 01:03:12;;;;;;;88.40;49.48;;;;;;;1.57;84.49;92993.51;1670327;85;21153;-56
2021/11/28 01:05:40;;;;;;;88.27;51.05;;;;;;;1.62;84.62;92983.48;1679400;84;21161;-58
2021/11/28 01:08:07;;;;;;;118.33;59.60;;;;;;;1.63;84.51;92988.28;1690927;83;21078;-56
2021/11/28 01:10:35;;;;;;;111.62;58.30;;;;;;;1.64;84.73;92968.89;1681283;83;21568;-57
2021/11/28 01:13:04;;;;;;;91.08;49.10;;;;;;;1.69;84.85;92971.06;1680047;83;20973;-57
2021/11/28 01:15:34;;;;;;;94.85;52.73;;;;;;;1.73;84.84;92968.41;1676956;83;21031;-57
2021/11/28 01:18:03;;;;;;;90.22;49.48;;;;;;;1.81;84.74;92959.47;1698347;83;21466;-57
2021/11/28 01:20:30;;;;;;;130.65;63.00;;;;;;;1.89;85.03;92949.91;1691836;82;21125;-56
2021/11/28 01:22:58;;;;;;;107.55;54.00;;;;;;;1.91;84.58;92955.06;1713239;82;21069;-57
2021/11/28 01:25:25;;;;;;;73.20;38.80;;;;;;;1.88;84.34;92947.03;1709424;83;21545;-56
2021/11/28 01:27:52;;;;;;;70.08;40.80;;;;;;;1.86;84.12;92952.13;1715445;82;21084;-57
2021/11/28 01:30:20;;;;;;;67.10;38.90;;;;;;;1.81;84.25;92948.02;1710251;83;21103;-56
2021/11/28 01:32:48;;;;;;;83.75;45.60;;;;;;;1.82;84.10;92956.91;1714776;82;21051;-55
2021/11/28 01:35:18;;;;;;;82.78;43.48;;;;;;;1.72;83.84;92956.64;1713315;82;21014;-56
2021/11/28 01:37:45;;;;;;;98.52;51.65;;;;;;;1.65;83.70;92958.22;1713751;82;21022;-57
2021/11/28 01:40:19;;;;;;;88.12;49.93;;;;;;;1.55;83.58;92949.06;1696047;82;21054;-56
2021/11/28 01:43:00;;;;;;;94.80;50.78;;;;;;;1.50;83.70;92951.70;1713705;82;22114;-57
2021/11/28 01:45:30;;;;;;;88.20;49.30;;;;;;;1.51;83.97;92947.80;1712504;82;20987;-56
2021/11/28 01:48:02;;;;;;;88.62;51.75;;;;;;;1.49;83.81;92951.55;1707977;83;21034;-57
2021/11/28 01:50:31;;;;;;;97.37;49.75;;;;;;;1.45;83.83;92943.36;1711587;83;21071;-56
2021/11/28 01:53:01;;;;;;;91.85;50.28;;;;;;;1.49;84.28;92931.23;1711560;83;21019;-57
2021/11/28 01:55:31;;;;;;;84.97;47.98;;;;;;;1.54;84.13;92936.09;1711667;83;21868;-57
2021/11/28 01:57:59;;;;;;;87.22;48.05;;;;;;;1.60;84.36;92937.67;1711230;83;20954;-57
2021/11/28 02:00:32;;;;;;;86.15;45.98;;;;;;;1.62;84.20;92921.74;1711558;83;21023;-56
2021/11/28 02:03:01;;;;;;;81.87;45.00;;;;;;;1.60;84.09;92920.84;1711366;83;20962;-57
2021/11/28 02:05:29;;;;;;;83.82;47.67;;;;;;;1.62;84.04;92915.73;1715227;83;20995;-57
2021/11/28 02:07:57;;;;;;;86.05;45.88;;;;;;;1.65;84.25;92914.86;1711426;83;21970;-57
2021/11/28 02:10:24;;;;;;;72.55;41.35;;;;;;;1.69;84.12;92913.41;1711247;83;20996;-57
2021/11/28 02:12:53;;;;;;;73.72;40.40;;;;;;;1.74;84.17;92902.17;1711315;83;21539;-57
2021/11/28 02:15:20;;;;;;;84.62;44.10;;;;;;;1.72;83.77;92898.98;1711375;83;21018;-56
2021/11/28 02:17:54;;;;;;;94.95;50.15;;;;;;;1.68;83.78;92918.05;1692414;83;21139;-57
2021/11/28 02:20:24;;;;;;;89.25;50.00;;;;;;;1.68;83.87;92921.38;1682535;84;22034;-58
2021/11/28 02:22:51;;;;;;;88.22;50.20;;;;;;;1.67;83.74;92920.61;1680185;84;21004;-56
2021/11/28 02:25:19;;;;;;;94.15;50.73;;;;;;;1.67;83.71;92915.80;1680191;84;21511;-57
2021/11/28 02:27:48;;;;;;;90.07;46.48;;;;;;;1.63;83.56;92918.61;1677819;84;21083;-57
2021/11/28 02:30:19;;;;;;;85.25;48.63;;;;;;;1.63;83.85;92926.73;1680075;84;20980;-57
2021/11/28 02:32:47;;;;;;;91.63;48.60;;;;;;;1.66;83.98;92930.54;1681550;84;21800;-55
2021/11/28 02:35:17;;;;;;;77.78;44.48;;;;;;;1.72;84.16;92939.63;1680064;84;21524;-56
2021/11/28 02:37:45;;;;;;;88.85;47.65;;;;;;;1.76;84.13;92930.20;1677981;84;20961;-56
2021/11/28 02:40:17;;;;;;;84.60;44.60;;;;;;;1.77;83.98;92931.72;1678330;84;21068;-57
2021/11/28 02:42:44;;;;;;;80.40;43.75;;;;;;;1.85;84.25;92924.87;1679678;84;21139;-58
2021/11/28 02:45:13;;;;;;;72.17;38.30;;;;;;;1.92;84.02;92908.39;1680298;84;21200;-57
2021/11/28 02:47:41;;;;;;;81.17;47.53;;;;;;;1.96;83.88;92909.03;1680118;84;21081;-57
2021/11/28 02:50:09;;;;;;;71.20;39.55;;;;;;;1.90;83.50;92901.27;1668063;85;20978;-57
2021/11/28 02:52:36;;;;;;;70.95;41.08;;;;;;;1.89;83.67;92898.40;1688505;84;21024;-59
2021/11/28 02:55:06;;;;;;;73.37;41.45;;;;;;;1.85;83.47;92884.98;1681721;84;21054;-56
2021/11/28 02:57:34;;;;;;;136.12;73.28;;;;;;;1.82;83.30;92887.22;1677967;85;21146;-56
2021/11/28 03:00:02;;;;;;;126.92;73.30;;;;;;;1.76;83.43;92889.55;1678309;84;21502;-56
2021/11/28 03:02:30;;;;;;;122.85;67.15;;;;;;;1.73;83.58;92879.56;1677011;84;21025;-57
2021/11/28 03:04:58;;;;;;;107.92;64.42;;;;;;;1.70;83.45;92875.02;1675205;84;21077;-57
2021/11/28 03:07:26;;;;;;;104.83;63.10;;;;;;;1.70;83.43;92877.73;1672687;84;21462;-57
2021/11/28 03:09:53;;;;;;;99.95;56.77;;;;;;;1.68;83.57;92885.53;1672613;84;21142;-57
2021/11/28 03:12:21;;;;;;;83.90;51.58;;;;;;;1.73;83.91;92874.75;1683893;84;21004;-57
2021/11/28 03:14:48;;;;;;;78.47;44.53;;;;;;;1.77;83.90;92881.58;1686264;84;21014;-56
2021/11/28 03:17:15;;;;;;;76.12;44.00;;;;;;;1.76;83.82;92877.36;1685783;83;21643;-57
2021/11/28 03:19:43;;;;;;;91.05;54.35;;;;;;;1.74;83.85;92885.17;1656235;84;21076;-57
2021/11/28 03:22:11;;;;;;;80.70;45.05;;;;;;;1.76;83.93;92877.36;1688627;84;21013;-56
2021/11/28 03:24:39;;;;;;;98.82;56.58;;;;;;;1.77;84.04;92878.26;1686907;84;21006;-58
2021/11/28 03:27:07;;;;;;;77.67;45.08;;;;;;;1.73;83.92;92872.78;1690567;84;21187;-56
2021/11/28 03:29:34;;;;;;;76.82;41.28;;;;;;;1.73;84.37;92876.85;1667626;84;20967;-57
2021/11/28 03:32:08;;;;;;;87.97;49.38;;;;;;;1.77;84.16;92869.39;1678862;84;22849;-56
2021/11/28 03:34:37;;;;;;;92.90;51.70;;;;;;;1.79;84.12;92879.19;1657565;85;20989;-57
2021/11/28 03:37:15;;;;;;;99.85;55.40;;;;;;;1.78;84.13;92874.97;1675328;84;21058;-57
2021/11/28 03:39:43;;;;;;;83.62;48.68;;;;;;;1.77;83.87;92869.39;1676837;84;21006;-56
2021/11/28 03:42:10;;;;;;;84.40;47.33;;;;;;;1.76;83.77;92877.36;1659086;85;21537;-56
2021/11/28 03:44:39;;;;;;;81.95;46.85;;;;;;;1.75;83.80;92874.48;1682947;84;21059;-55
2021/11/28 03:47:12;;;;;;;74.67;44.80;;;;;;;1.76;83.74;92878.10;1692010;83;21535;-56
2021/11/28 03:49:40;;;;;;;89.90;48.78;;;;;;;1.77;83.82;92867.42;1706927;83;21017;-57
2021/11/28 03:52:09;;;;;;;77.30;46.65;;;;;;;1.77;83.90;92865.32;1691683;83;20954;-57
2021/11/28 03:54:38;;;;;;;79.62;45.28;;;;;;;1.81;84.17;92867.31;1713022;82;21427;-57
2021/11/28 03:57:05;;;;;;;77.42;44.20;;;;;;;1.92;84.45;92873.16;1714012;83;21420;-57
2021/11/28 03:59:33;;;;;;;76.07;43.58;;;;;;;2.02;84.18;92861.18;1703805;82;21330;-57
2021/11/28 04:02:00;;;;;;;73.20;45.65;;;;;;;2.07;83.86;92864.68;1703932;83;21085;-57
2021/11/28 04:04:28;;;;;;;82.10;46.55;;;;;;;2.06;83.69;92868.59;1701627;83;20992;-56
2021/11/28 04:07:05;;;;;;;70.22;40.12;;;;;;;2.08;83.95;92869.68;1689426;83;21549;-56
2021/11/28 04:09:34;;;;;;;83.67;47.25;;;;;;;2.15;83.84;92870.05;1687495;83;21012;-57
2021/11/28 04:12:06;;;;;;;80.67;48.40;;;;;;;2.12;83.34;92873.64;1685673;84;20976;-56
2021/11/28 04:14:34;;;;;;;81.95;48.60;;;;;;;2.08;83.08;92877.05;1686400;83;21069;-57
2021/11/28 04:17:02;;;;;;;86.67;50.23;;;;;;;2.02;83.05;92880.16;1662632;83;21045;-57
2021/11/28 04:19:32;;;;;;;86.20;48.70;;;;;;;1.95;83.06;92874.37;1685479;83;21046;-58
2021/11/28 04:21:59;;;;;;;87.02;47.45;;;;;;;1.92;82.99;92873.16;1679426;84;21556;-57
2021/11/28 04:24:27;;;;;;;79.80;45.90;;;;;;;1.92;82.96;92864.41;1679504;83;21087;-58
2021/11/28 04:26:55;;;;;;;92.82;51.40;;;;;;;1.92;82.92;92867.73;1681773;83;20982;-58
2021/11/28 04:29:23;;;;;;;82.62;48.48;;;;;;;1.89;82.93;92874.00;1683904;83;21014;-57
2021/11/28 04:31:50;;;;;;;80.03;47.65;;;;;;;1.92;83.55;92873.16;1686403;83;20977;-57
2021/11/28 04:34:18;;;;;;;80.87;44.03;;;;;;;2.03;83.70;92878.96;1683977;83;20971;-57
2021/11/28 04:36:46;;;;;;;70.47;43.83;;;;;;;2.13;83.49;92875.16;1689449;83;21530;-57
2021/11/28 04:39:13;;;;;;;70.32;43.05;;;;;;;2.17;83.25;92882.56;1682118;84;21588;-57
2021/11/28 04:41:41;;;;;;;73.57;46.88;;;;;;;2.19;82.92;92878.22;1680105;83;21005;-57
2021/11/28 04:44:12;;;;;;;78.42;44.77;;;;;;;2.18;83.08;92884.82;1685579;83;20991;-57
2021/11/28 04:46:40;;;;;;;83.50;48.60;;;;;;;2.21;83.00;92882.61;1686325;83;21096;-57
2021/11/28 04:49:08;;;;;;;79.92;43.45;;;;;;;2.19;82.86;92880.94;1683469;83;21154;-58
2021/11/28 04:51:36;;;;;;;72.25;42.53;;;;;;;2.21;82.88;92886.67;1681906;84;21217;-57
2021/11/28 04:54:05;;;;;;;73.65;43.33;;;;;;;2.17;82.79;92887.38;1679491;84;21453;-58
2021/11/28 04:56:33;;;;;;;71.33;41.25;;;;;;;2.14;82.82;92877.41;1679171;84;21429;-57
2021/11/28 04:59:01;;;;;;;70.20;41.70;;;;;;;2.12;83.25;92879.06;1677917;84;21107;-57
2021/11/28 05:01:32;;;;;;;74.30;42.60;;;;;;;2.09;83.02;92873.13;1681674;84;21005;-57
2021/11/28 05:04:04;;;;;;;65.95;38.17;;;;;;;2.06;83.02;92864.52;1679712;84;20965;-57
2021/11/28 05:06:46;;;;;;;75.00;44.10;;;;;;;2.04;82.98;92869.63;1676064;84;21025;-56
2021/11/28 05:09:20;;;;;;;63.80;37.78;;;;;;;1.99;83.03;92860.70;1682615;84;21036;-57
2021/11/28 05:11:48;;;;;;;65.25;41.28;;;;;;;1.95;82.99;92872.27;1682452;84;21614;-57
2021/11/28 05:14:16;;;;;;;62.60;37.70;;;;;;;1.89;83.10;92872.06;1681571;83;21162;-57
2021/11/28 05:16:44;;;;;;;64.05;38.45;;;;;;;1.88;83.08;92867.84;1680007;84;21044;-57
2021/11/28 05:19:17;;;;;;;65.92;43.92;;;;;;;1.92;83.34;92875.86;1683953;83;21048;-57
2021/11/28 05:21:49;;;;;;;63.35;37.78;;;;;;;1.94;83.23;92877.54;1658411;84;20965;-58
2021/11/28 05:24:18;;;;;;;63.15;37.10;;;;;;;1.90;83.36;92878.23;1680262;84;21454;-57
2021/11/28 05:26:47;;;;;;;69.25;38.85;;;;;;;1.85;83.38;92867.95;1679808;84;21855;-56
2021/11/28 05:29:18;;;;;;;72.50;40.95;;;;;;;1.84;83.50;92870.50;1669330;85;21124;-56
2021/11/28 05:31:46;;;;;;;72.42;43.65;;;;;;;1.85;83.74;92872.02;1676430;84;21137;-57
2021/11/28 05:34:18;;;;;;;79.60;46.03;;;;;;;1.91;84.11;92877.80;1673965;84;21625;-58
2021/11/28 05:37:04;;;;;;;73.37;42.05;;;;;;;2.03;84.39;92871.59;1684434;84;20949;-55
2021/11/28 05:39:33;;;;;;;68.70;40.35;;;;;;;2.15;84.11;92865.97;1683778;84;21773;-56
2021/11/28 05:42:01;;;;;;;71.85;40.50;;;;;;;2.22;83.61;92875.22;1678519;84;21080;-58
2021/11/28 05:44:28;;;;;;;75.15;43.28;;;;;;;2.21;83.29;92869.05;1684506;84;21099;-56
2021/11/28 05:46:57;;;;;;;84.20;47.10;;;;;;;2.23;83.30;92869.95;1677842;84;21636;-57
2021/11/28 05:49:30;;;;;;;81.32;48.13;;;;;;;2.22;83.22;92870.56;1678329;83;21065;-55
2021/11/28 05:52:11;;;;;;;91.00;49.98;;;;;;;2.25;83.30;92875.69;1676170;84;21181;-58
2021/11/28 05:54:39;;;;;;;109.78;62.03;;;;;;;2.28;83.29;92865.31;1680205;84;21073;-57
2021/11/28 05:57:07;;;;;;;161.05;79.85;;;;;;;2.31;83.30;92876.05;1683775;84;20973;-57
2021/11/28 05:59:34;;;;;;;140.07;72.75;;;;;;;2.40;83.36;92875.36;1679996;84;21052;-56
2021/11/28 06:02:02;;;;;;;104.23;59.30;;;;;;;2.52;83.61;92884.06;1674846;84;21008;-56
2021/11/28 06:04:29;;;;;;;110.03;61.20;;;;;;;2.61;83.07;92882.75;1682031;84;21216;-57
2021/11/28 06:07:04;;;;;;;99.42;56.68;;;;;;;2.64;82.96;92890.01;1672164;84;21070;-58
2021/11/28 06:09:33;;;;;;;88.30;49.88;;;;;;;2.66;82.71;92887.63;1674738;84;21049;-57
2021/11/28 06:12:00;;;;;;;87.15;47.15;;;;;;;2.65;82.36;92887.48;1683956;84;21043;-56
2021/11/28 06:14:27;;;;;;;87.25;47.08;;;;;;;2.59;82.28;92877.78;1683554;84;21020;-56
2021/11/28 06:16:58;;;;;;;80.72;46.50;;;;;;;2.60;82.58;92882.59;1686564;84;22011;-57
2021/11/28 06:19:27;;;;;;;84.42;47.93;;;;;;;2.58;82.49;92887.13;1682704;83;21418;-57
2021/11/28 06:22:00;;;;;;;78.20;45.85;;;;;;;2.58;82.37;92889.06;1666773;84;21049;-57
2021/11/28 06:24:29;;;;;;;78.60;43.65;;;;;;;2.56;82.56;92872.47;1673275;85;20966;-58
2021/11/28 06:26:58;;;;;;;83.22;45.52;;;;;;;2.57;82.36;92863.12;1675757;85;21006;-57
2021/11/28 06:29:26;;;;;;;81.32;47.45;;;;;;;2.55;82.24;92863.59;1679801;84;21924;-57
2021/11/28 06:31:54;;;;;;;83.65;49.35;;;;;;;2.56;82.37;92859.67;1675919;83;21060;-56
2021/11/28 06:34:22;;;;;;;93.52;58.38;;;;;;;2.57;82.31;92865.84;1691935;84;21075;-58
2021/11/28 06:37:07;;;;;;;89.05;53.55;;;;;;;2.52;82.38;92863.70;1681341;84;21007;-56
2021/11/28 06:39:53;;;;;;;95.83;52.80;;;;;;;2.51;82.46;92859.48;1678842;84;21095;-56
2021/11/28 06:42:34;;;;;;;91.72;52.93;;;;;;;2.52;82.68;92863.70;1683436;84;21182;-57
2021/11/28 06:45:02;;;;;;;98.62;54.60;;;;;;;2.59;82.93;92862.09;1680874;84;21426;-58
2021/11/28 06:47:29;;;;;;;112.50;62.43;;;;;;;2.62;82.83;92854.41;1682581;84;21009;-57
2021/11/28 06:49:56;;;;;;;139.45;77.10;;;;;;;2.70;83.23;92855.69;1664804;84;21015;-57
2021/11/28 06:52:25;;;;;;;132.35;72.55;;;;;;;2.79;83.02;92855.73;1670689;84;21066;-57
2021/11/28 06:54:58;;;;;;;110.43;65.67;;;;;;;2.88;82.82;92859.87;1675423;84;21984;-57
2021/11/28 06:57:26;;;;;;;106.17;62.23;;;;;;;2.87;82.44;92848.23;1663248;84;21160;-57
2021/11/28 06:59:54;;;;;;;116.40;70.57;;;;;;;2.90;82.26;92840.56;1669937;84;21159;-58
2021/11/28 07:02:21;;;;;;;161.92;85.60;;;;;;;2.88;82.10;92849.02;1667512;83;21009;-57
2021/11/28 07:04:48;;;;;;;147.98;88.22;;;;;;;2.83;82.03;92851.70;1662762;84;21672;-56
2021/11/28 07:07:32;;;;;;;130.50;77.95;;;;;;;2.77;82.20;92840.48;1673387;84;21876;-58
2021/11/28 07:10:08;;;;;;;132.95;77.27;;;;;;;2.79;82.33;92849.72;1670250;84;20971;-58
2021/11/28 07:12:36;;;;;;;128.75;73.35;;;;;;;2.82;82.43;92849.41;1674819;84;21002;-57
2021/11/28 07:15:06;;;;;;;131.72;75.17;;;;;;;2.90;82.50;92845.25;1649143;85;21085;-57
2021/11/28 07:17:35;;;;;;;149.05;84.40;;;;;;;2.97;82.37;92844.97;1673598;84;21121;-57
2021/11/28 07:20:06;;;;;;;204.82;104.90;;;;;;;2.99;82.29;92831.70;1678285;84;21014;-58
2021/11/28 07:22:40;;;;;;;244.15;115.75;;;;;;;3.05;82.73;92830.69;1670532;84;21091;-57
2021/11/28 07:25:08;;;;;;;287.90;133.43;;;;;;;3.17;82.55;92839.94;1682679;84;21440;-58
2021/11/28 07:27:38;;;;;;;252.07;120.33;;;;;;;3.23;82.37;92834.10;1678998;84;21028;-57
2021/11/28 07:30:06;;;;;;;177.00;95.80;;;;;;;3.31;82.42;92827.17;1675971;84;20964;-58
2021/11/28 07:32:36;;;;;;;150.20;90.97;;;;;;;3.42;82.38;92828.89;1680066;83;21146;-57
2021/11/28 07:35:22;;;;;;;162.62;96.92;;;;;;;3.55;82.29;92828.92;1682123;84;21064;-58
2021/11/28 07:37:51;;;;;;;152.97;92.37;;;;;;;3.63;81.92;92842.38;1665214;84;21036;-57
2021/11/28 07:40:18;;;;;;;151.42;95.12;;;;;;;3.68;81.58;92835.75;1674802;84;20977;-58
2021/11/28 07:42:48;;;;;;;159.97;94.92;;;;;;;3.70;81.11;92831.98;1677342;84;21008;-56
2021/11/28 07:45:35;;;;;;;133.45;82.00;;;;;;;3.73;81.23;92841.20;1674921;83;21172;-57
2021/11/28 07:48:10;;;;;;;129.68;79.15;;;;;;;3.80;81.05;92835.47;1628207;84;21114;-58
2021/11/28 07:50:39;;;;;;;132.30;84.75;;;;;;;3.83;80.76;92830.52;1682341;84;21662;-57
2021/11/28 07:53:06;;;;;;;151.47;95.90;;;;;;;3.83;80.77;92834.59;1680627;83;21132;-57
2021/11/28 07:55:33;;;;;;;167.68;105.85;;;;;;;3.79;80.72;92833.38;1682698;84;21194;-57
2021/11/28 07:58:02;;;;;;;148.85;92.75;;;;;;;3.74;81.03;92830.48;1680357;84;21093;-57
2021/11/28 08:00:41;;;;;;;135.80;77.78;;;;;;;3.75;81.01;92831.41;1677602;84;21081;-56
2021/11/28 08:03:22;;;;;;;139.72;81.42;;;;;;;3.74;81.08;92828.53;1680445;84;21013;-58
2021/11/28 08:06:09;;;;;;;157.00;95.95;;;;;;;3.79;81.57;92829.29;1680367;83;21166;-56
2021/11/28 08:08:53;;;;;;;158.72;98.03;;;;;;;3.86;81.22;92823.55;1679173;84;21059;-57
2021/11/28 08:11:34;;;;;;;211.25;123.20;;;;;;;3.85;81.41;92826.13;1681331;84;21540;-58
2021/11/28 08:14:03;;;;;;;203.18;127.42;;;;;;;3.87;81.22;92822.34;1679911;84;21072;-56
2021/11/28 08:16:32;;;;;;;164.67;101.45;;;;;;;3.86;81.63;92824.17;1681080;84;21489;-58
2021/11/28 08:19:01;;;;;;;175.47;105.30;;;;;;;3.93;81.71;92817.84;1677225;84;21176;-58
2021/11/28 08:21:28;;;;;;;171.00;102.92;;;;;;;4.05;81.64;92831.14;1631503;85;21021;-57
2021/11/28 08:23:58;;;;;;;164.45;101.60;;;;;;;4.14;81.18;92823.75;1680094;83;21144;-57
2021/11/28 08:26:27;;;;;;;129.03;79.72;;;;;;;4.18;81.15;92833.88;1705610;84;20952;-59
2021/11/28 08:28:55;;;;;;;133.12;84.05;;;;;;;4.25;80.97;92822.68;1658343;84;20971;-57
2021/11/28 08:31:23;;;;;;;154.35;94.25;;;;;;;4.30;80.82;92830.26;1709841;83;21025;-60
2021/11/28 08:34:09;;;;;;;108.47;67.32;;;;;;;4.29;80.72;92817.86;1670322;84;21473;-58
2021/11/28 08:36:38;;;;;;;107.27;70.12;;;;;;;4.34;80.93;92830.86;1659686;85;21159;-57
2021/11/28 08:39:05;;;;;;;123.72;77.75;;;;;;;4.35;81.01;92825.56;1668813;84;21014;-58
2021/11/28 08:41:33;;;;;;;95.53;61.75;;;;;;;4.38;80.78;92827.38;1704516;83;21435;-57
2021/11/28 08:44:01;;;;;;;88.55;54.90;;;;;;;4.39;81.07;92803.65;1711394;83;20999;-58
2021/11/28 08:46:29;;;;;;;77.60;50.40;;;;;;;4.42;81.35;92811.64;1711374;83;20956;-57
2021/11/28 08:48:58;;;;;;;71.02;46.15;;;;;;;4.47;81.12;92806.97;1711381;83;21177;-59
2021/11/28 08:51:27;;;;;;;72.37;45.55;;;;;;;4.53;81.01;92811.95;1711327;83;21439;-57
2021/11/28 08:53:56;;;;;;;74.55;47.78;;;;;;;4.57;81.12;92809.81;1715330;83;21011;-57
2021/11/28 08:56:25;;;;;;;70.45;43.78;;;;;;;4.61;81.18;92811.77;1684751;83;21518;-58
2021/11/28 08:58:53;;;;;;;67.40;44.70;;;;;;;4.69;81.47;92804.81;1711569;83;21498;-57
2021/11/28 09:01:20;;;;;;;55.17;39.33;;;;;;;4.84;81.55;92792.68;1711450;83;21144;-58
2021/11/28 09:03:48;;;;;;;54.98;36.90;;;;;;;4.96;81.39;92793.85;1683071;83;21529;-56
2021/11/28 09:06:16;;;;;;;63.28;42.23;;;;;;;5.12;81.24;92794.12;1677508;84;21497;-58
2021/11/28 09:08:44;;;;;;;65.92;44.42;;;;;;;5.22;81.20;92775.91;1680405;84;21083;-57
2021/11/28 09:11:11;;;;;;;58.10;39.48;;;;;;;5.34;80.97;92774.94;1666225;84;21051;-57
2021/11/28 09:13:38;;;;;;;55.38;36.98;;;;;;;5.48;80.87;92774.27;1674001;83;21166;-57
2021/11/28 09:16:10;;;;;;;66.30;44.27;;;;;;;5.59;80.36;92773.91;1673494;84;21587;-57
2021/11/28 09:18:45;;;;;;;70.37;46.40;;;;;;;5.73;80.04;92779.27;1683652;84;20968;-58
2021/11/28 09:21:14;;;;;;;56.35;38.15;;;;;;;5.89;80.00;92770.72;1685740;84;21578;-58
2021/11/28 09:26:26;;;;;;;62.43;36.48;;;;;;;6.48;79.16;92758.13;1683070;84;21160;-58
2021/11/28 09:28:54;;;;;;;47.93;33.10;;;;;;;6.82;78.70;92749.91;1680130;84;21518;-58
2021/11/28 09:31:21;;;;;;;66.90;46.25;;;;;;;7.13;78.24;92758.52;1685447;84;21174;-58
2021/11/28 09:33:50;;;;;;;46.73;31.80;;;;;;;7.48;77.05;92743.53;1680833;83;21009;-57
2021/11/28 09:36:17;;;;;;;42.03;29.35;;;;;;;7.88;76.79;92741.58;1711365;83;20968;-57
2021/11/28 09:38:45;;;;;;;48.38;33.05;;;;;;;8.45;75.87;92745.30;1711265;83;21910;-58
2021/11/28 09:41:12;;;;;;;139.30;76.28;;;;;;;9.08;74.43;92735.97;1711333;83;20994;-57
2021/11/28 09:43:44;;;;;;;42.17;27.32;;;;;;;9.59;72.88;92738.61;1711498;83;21067;-56
2021/11/28 09:46:13;;;;;;;39.20;26.07;;;;;;;10.04;71.66;92715.67;1711179;83;21222;-57
2021/11/28 09:48:41;;;;;;;62.58;38.67;;;;;;;10.52;71.59;92718.48;1711346;83;21093;-59
2021/11/28 09:51:10;;;;;;;51.18;33.35;;;;;;;10.88;68.78;92715.59;1691469;83;20959;-58
2021/11/28 09:53:38;;;;;;;39.30;24.65;;;;;;;11.16;67.51;92732.13;1715090;83;20963;-58
2021/11/28 09:56:06;;;;;;;36.10;24.75;;;;;;;11.49;68.29;92718.38;1711242;83;20939;-58
2021/11/28 09:58:34;;;;;;;32.13;20.57;;;;;;;11.87;67.46;92730.75;1711583;83;21010;-58
2021/11/28 10:01:02;;;;;;;29.98;20.12;;;;;;;12.26;67.34;92720.37;1710668;83;21074;-59
2021/11/28 10:03:29;;;;;;;20.32;15.08;;;;;;;12.52;65.35;92725.55;1706900;83;21770;-58
2021/11/28 10:05:56;;;;;;;21.48;15.38;;;;;;;12.63;64.13;92727.00;1690104;83;21082;-59
2021/11/28 10:08:24;;;;;;;16.07;11.60;;;;;;;12.67;63.75;92722.58;1706963;83;21562;-58
2021/11/28 10:11:21;;;;;;;15.25;9.05;;;;;;;12.67;63.97;92712.92;1711298;83;21055;-58
2021/11/28 10:13:49;;;;;;;8.83;7.40;;;;;;;12.76;63.31;92709.88;1707515;83;21423;-58
2021/11/28 10:16:18;;;;;;;6.85;5.75;;;;;;;12.85;60.85;92710.95;1711218;83;20947;-58
2021/11/28 10:18:47;;;;;;;6.37;4.58;;;;;;;13.10;61.58;92708.45;1711389;83;20967;-58
2021/11/28 10:21:16;;;;;;;4.60;3.10;;;;;;;13.54;58.69;92694.30;1691081;83;21495;-58
2021/11/28 10:24:17;;;;;;;2.62;2.42;;;;;;;14.03;57.08;92701.39;1711190;83;21534;-57
2021/11/28 10:27:02;;;;;;;2.75;2.55;;;;;;;14.53;54.74;92679.60;1711327;83;21097;-57
2021/11/28 10:29:33;;;;;;;12.05;7.20;;;;;;;14.81;54.15;92685.52;1710763;83;21335;-59
2021/11/28 10:32:01;;;;;;;8.53;4.65;;;;;;;14.93;53.28;92686.88;1691934;83;21656;-57
2021/11/28 10:34:41;;;;;;;1.90;1.80;;;;;;;14.96;52.53;92691.35;1694722;83;21615;-58
2021/11/28 10:37:18;;;;;;;10.63;6.90;;;;;;;14.93;51.00;92685.48;1700514;83;21454;-58
2021/11/28 10:39:45;;;;;;;4.03;3.65;;;;;;;15.05;51.76;92679.15;1681088;83;21011;-58
2021/11/28 10:42:31;;;;;;;20.00;7.05;;;;;;;15.46;52.12;92670.63;1690960;83;21127;-58
2021/11/28 10:45:10;;;;;;;5.30;4.42;;;;;;;15.97;50.42;92672.02;1682376;84;20979;-57
2021/11/28 10:47:50;;;;;;;3.50;2.67;;;;;;;16.50;50.34;92667.99;1695020;83;21965;-58
2021/11/28 10:50:27;;;;;;;2.08;1.87;;;;;;;16.87;49.59;92663.59;1642408;83;21459;-58
2021/11/28 10:53:08;;;;;;;3.72;3.05;;;;;;;17.54;48.42;92671.30;1699571;83;20971;-59
2021/11/28 10:55:44;;;;;;;3.58;3.10;;;;;;;18.31;47.13;92663.14;1696336;83;21178;-58
2021/11/28 10:58:20;;;;;;;2.50;1.80;;;;;;;18.82;45.94;92670.97;1694604;83;21007;-59
2021/11/28 11:00:56;;;;;;;5.42;3.10;;;;;;;19.06;43.68;92656.60;1705992;83;20993;-59
2021/11/28 11:03:28;;;;;;;2.30;1.77;;;;;;;18.96;42.85;92664.61;1700335;83;21017;-59
2021/11/28 11:06:25;;;;;;;7.20;3.70;;;;;;;18.65;42.03;92667.91;1679141;84;21020;-57
2021/11/28 11:09:19;;;;;;;2.25;1.20;;;;;;;18.04;43.51;92651.31;1681367;84;21129;-58
2021/11/28 11:11:50;;;;;;;2.67;2.12;;;;;;;17.15;42.95;92663.09;1673556;84;21096;-57
2021/11/28 11:14:21;;;;;;;2.50;2.02;;;;;;;16.44;44.92;92655.64;1679989;84;21005;-57
2021/11/28 11:16:51;;;;;;;5.37;1.80;;;;;;;16.66;44.86;92670.45;1682959;84;21580;-57
2021/11/28 11:19:32;;;;;;;1.10;1.10;;;;;;;16.91;44.65;92670.29;1679303;84;21041;-58
2021/11/28 11:22:24;;;;;;;1.25;1.15;;;;;;;16.82;43.66;92663.81;1681015;84;21161;-59
2021/11/28 11:25:00;;;;;;;2.77;1.25;;;;;;;16.28;44.61;92694.77;1680019;84;21429;-57
2021/11/28 11:27:33;;;;;;;2.47;2.10;;;;;;;15.36;46.57;92697.22;1678086;84;21005;-58
2021/11/28 11:30:13;;;;;;;16.35;2.45;;;;;;;14.58;48.52;92698.14;1681993;84;21559;-58
2021/11/28 11:32:51;;;;;;;6.22;1.45;;;;;;;14.01;49.74;92674.90;1682645;84;21035;-57
2021/11/28 11:35:26;;;;;;;1.50;1.40;;;;;;;13.64;51.14;92682.41;1710813;83;21444;-58
2021/11/28 11:38:01;;;;;;;2.00;1.90;;;;;;;13.23;52.33;92683.78;1711502;83;21502;-57
2021/11/28 11:40:28;;;;;;;7.45;3.35;;;;;;;12.91;53.32;92686.20;1691639;83;21014;-58
2021/11/28 11:42:56;;;;;;;11.63;5.67;;;;;;;12.69;54.13;92680.08;1710798;83;21502;-57
2021/11/28 11:45:27;;;;;;;10.78;3.40;;;;;;;12.51;55.20;92683.44;1711516;83;21074;-57
2021/11/28 11:47:54;;;;;;;10.40;2.67;;;;;;;12.35;55.81;92689.77;1706220;83;21148;-58